LGAVLGSM

Guest
Details From LGAV - Athens Intl Airport Elefterios Venizel
To LGSM - Samos
Flight Number -
Tags Routegen Generated
Created
Modified
Stats Distance 143 nm / 265 km
Max Altitude 600 ft / 183 m
Waypoints 8
Social Downloads 1
Likes 0
Share

Download

Looking for another format? Having issues loading an existing format? Contact us
Advertisement - Login to hide

Notes

Departing runway 3 LGAV. Arriving runway 9 LGSM.

Route

LGAV +38.01_+024.03 +38.04_+024.09 +38.06_+024.16 +38.05_+024.23 +37.92_+025.22 +37.69_+026.81 LGSM

ID Type Via Altitude (ft/m) Position (lat/lon) Dist (leg/tot) Name
O LGAV APT - 0 / 0 37.95242 / 23.97042 - / 0 nm
+38.01_+024.03 LATLON - 600 / 183 38.01055 / 24.02511 4 / 4 nm
+38.04_+024.09 LATLON - 600 / 183 38.04245 / 24.08644 3 / 7 nm
+38.06_+024.16 LATLON - 600 / 183 38.05591 / 24.15794 3 / 11 nm
+38.05_+024.23 LATLON - 600 / 183 38.04929 / 24.23098 3 / 14 nm
+37.92_+025.22 LATLON - 600 / 183 37.91945 / 25.21705 47 / 62 nm
+37.69_+026.81 LATLON - 600 / 183 37.69470 / 26.80834 76 / 138 nm
O LGSM APT - 0 / 0 37.68966 / 26.89957 4 / 143 nm

Altitude Profile

Advertisement - Login to hide

LGAV

Details ICAO LGAV (ATH)
Name Athens "Eleftherios Venizelos"
Region Greece
Timezone Europe/Athens (UTC+3.0)
Stats Elevation 308 ft / 94 m (AMSL)
Location 37.936700° 23.944500°
Runways 2
Magnetic Variation 4.757° E

METAR

LGAV 011620Z 21008KT CAVOK 22/14 Q1010 NOSIG

Decode

TAF

TAF TAF LGAV 011100Z 0112/0212 VRB05KT 9999 FEW030 TEMPO 0112/0118 22012KT

Decode

Departure Runways

ID Width Length Bearing (true/mag) Surface Threshold Overrun Markings Lighting
03L 151 ft / 46 m 12,478 ft / 3,803 m 36.86° / 32.10° ASPHALT 984 ft / 300 m 394 ft / 120 m PREC-APP CENTERLINE EDGE THRESHOLD ALSF-II TDZ REIL-OMNI
03R 151 ft / 46 m 13,135 ft / 4,004 m 36.87° / 32.12° ASPHALT 984 ft / 300 m 394 ft / 120 m PREC-APP CENTERLINE EDGE THRESHOLD ALSF-II TDZ REIL-OMNI
21L 151 ft / 46 m 13,135 ft / 4,004 m 216.89° / 212.13° ASPHALT 984 ft / 300 m 394 ft / 120 m PREC-APP CENTERLINE EDGE THRESHOLD ALSF-II TDZ REIL-OMNI
21R 151 ft / 46 m 12,478 ft / 3,803 m 216.87° / 212.12° ASPHALT 984 ft / 300 m 394 ft / 120 m PREC-APP CENTERLINE EDGE THRESHOLD ALSF-II TDZ REIL-OMNI

LGSM

Details ICAO LGSM (SMI)
Name SAMOS
Region Greece
Timezone Europe/Athens (UTC+3.0)
Stats Elevation 62 ft / 19 m (AMSL)
Location 37.689100° 26.912800°
Runways 1
Magnetic Variation 5.071° E

METAR

LGSM 011550Z 00000KT 9999 FEW020 24/19 Q1010

Decode

TAF

Not found

Destination Runways

ID Width Length Bearing (true/mag) Surface Threshold Overrun Markings Lighting
09 192 ft / 58 m 6,712 ft / 2,046 m 94.28° / 89.20° ASPHALT 0 ft / 0 m 0 ft / 0 m APP CENTERLINE EDGE THRESHOLD MALSF
27 192 ft / 58 m 6,712 ft / 2,046 m 274.29° / 269.22° ASPHALT 243 ft / 74 m 0 ft / 0 m APP CENTERLINE EDGE THRESHOLD MALSF

Popular Alternatives